CheckWX is a tool to help pilots better visualize weather data.  It is not intended as a substitute for an official pre-flight weather briefing.

07:57:00 UTC

KBVI METAR
Beaver County Airport
Beaver Falls, Pennsylvania, USA
Current

22 mins ago

KBVI 150735Z AUTO 25004KT 10SM CLR M01/M05 A3024 RMK AO2 T10061050
Observed
Nov-15 @ 07:35 UTC
Wind
  • 250° at 4 KTS
Visibility
10 SM
Flight Rules
VFR
Cloud Levels
  • Clear skies
Temperature
-1°C / 30°F
Dewpoint
-5°C / 23°F
Humidity
75%
Altimeter
30.24" Hg
Pressure
1024.02 hPa
Previous

42 mins ago

KBVI 150715Z AUTO 26004KT 10SM CLR M01/M05 A3025 RMK AO2 T10061051
Observed
Nov-15 @ 07:15 UTC
Wind
  • 260° at 4 KTS
Visibility
10 SM
Flight Rules
VFR
Cloud Levels
  • Clear skies
Temperature
-1°C / 30°F
Dewpoint
-5°C / 23°F
Humidity
75%
Altimeter
30.25" Hg
Pressure
1024.42 hPa
Previous

1 hour ago

KBVI 150655Z AUTO 25003KT 10SM CLR 00/M05 A3024 RMK AO2 T10021050
Observed
Nov-15 @ 06:55 UTC
Wind
  • 250° at 3 KTS
Visibility
10 SM
Flight Rules
VFR
Cloud Levels
  • Clear skies
Temperature
-0°C / 32°F
Dewpoint
-5°C / 23°F
Humidity
69%
Altimeter
30.24" Hg
Pressure
1024.02 hPa